Categories
Aviation Medical

Admin months

May and June are busy months from a flying admin point of view. My medical (which needs to be done annually) expires at the end of May. My PPL needs to be renewed by the end of June. This makes this a busy couple of weeks.

To renew my medical requires an annual audiogram, lipogram and eye test. To be honest, I can’t see why these need to be done yearly (perhaps with the exception of the eye test?). Having to go through a medical every year at my age (42) seems superfluous – especially since I know I’m in good health.

Categories
Not Flying

#NotFlying

Gorgeous day today.

FALA 150900Z 35008KT 320V020 CAVOK 18/04 Q1024 NOSIG

Ok. There is a bit of a crosswind on the 07/25 but it’s irrelevant. Because I’m not flying. And why is that? Because on call….

And there is apparently a massive cold front cruising in. Will probably be there just in time for next lesson on Tuesday. (Of course)